sensor_id;sensor_type;location;lat;lon;timestamp;temperature;humidity
38726;DHT22;24474;48.906;8.808;2023-12-20T00:01:23;6.60;99.90
38726;DHT22;24474;48.906;8.808;2023-12-20T00:03:48;6.60;99.90
38726;DHT22;24474;48.906;8.808;2023-12-20T00:06:14;6.70;99.90
38726;DHT22;24474;48.906;8.808;2023-12-20T00:08:40;6.60;99.90
38726;DHT22;24474;48.906;8.808;2023-12-20T00:11:05;6.70;99.90
38726;DHT22;24474;48.906;8.808;2023-12-20T00:13:31;6.60;99.90
38726;DHT22;24474;48.906;8.808;2023-12-20T00:15:57;6.60;99.90
38726;DHT22;24474;48.906;8.808;2023-12-20T00:18:23;6.60;99.90
38726;DHT22;24474;48.906;8.808;2023-12-20T00:20:48;6.60;99.90
38726;DHT22;24474;48.906;8.808;2023-12-20T00:23:14;6.60;99.90
38726;DHT22;24474;48.906;8.808;2023-12-20T00:25:40;6.60;99.90
38726;DHT22;24474;48.906;8.808;2023-12-20T00:28:06;6.60;99.90
38726;DHT22;24474;48.906;8.808;2023-12-20T00:30:32;6.60;99.90
38726;DHT22;24474;48.906;8.808;2023-12-20T00:32:57;6.60;99.90
38726;DHT22;24474;48.906;8.808;2023-12-20T00:35:23;6.60;99.90
38726;DHT22;24474;48.906;8.808;2023-12-20T00:37:48;6.60;99.90
38726;DHT22;24474;48.906;8.808;2023-12-20T00:40:14;6.60;99.90
38726;DHT22;24474;48.906;8.808;2023-12-20T00:42:40;6.60;99.90
38726;DHT22;24474;48.906;8.808;2023-12-20T00:45:06;6.60;99.90
38726;DHT22;24474;48.906;8.808;2023-12-20T00:47:32;6.60;99.90
38726;DHT22;24474;48.906;8.808;2023-12-20T00:49:58;6.50;99.90
38726;DHT22;24474;48.906;8.808;2023-12-20T00:52:24;6.50;99.90
38726;DHT22;24474;48.906;8.808;2023-12-20T00:54:51;6.50;99.90
38726;DHT22;24474;48.906;8.808;2023-12-20T00:57:17;6.50;99.90
38726;DHT22;24474;48.906;8.808;2023-12-20T00:59:43;6.40;99.90
38726;DHT22;24474;48.906;8.808;2023-12-20T01:02:08;6.40;99.90
38726;DHT22;24474;48.906;8.808;2023-12-20T01:04:36;6.40;99.90
38726;DHT22;24474;48.906;8.808;2023-12-20T01:07:01;6.40;99.90
38726;DHT22;24474;48.906;8.808;2023-12-20T01:09:27;6.40;99.90
38726;DHT22;24474;48.906;8.808;2023-12-20T01:11:53;6.30;99.90
38726;DHT22;24474;48.906;8.808;2023-12-20T01:14:19;6.40;99.90
38726;DHT22;24474;48.906;8.808;2023-12-20T01:16:45;6.30;99.90
38726;DHT22;24474;48.906;8.808;2023-12-20T01:19:11;6.30;99.90
38726;DHT22;24474;48.906;8.808;2023-12-20T01:21:36;6.30;99.90
38726;DHT22;24474;48.906;8.808;2023-12-20T01:24:02;6.40;99.90
38726;DHT22;24474;48.906;8.808;2023-12-20T01:26:28;6.40;99.90
38726;DHT22;24474;48.906;8.808;2023-12-20T01:28:54;6.40;99.90
38726;DHT22;24474;48.906;8.808;2023-12-20T01:31:19;6.40;99.90
38726;DHT22;24474;48.906;8.808;2023-12-20T01:33:45;6.40;99.90
38726;DHT22;24474;48.906;8.808;2023-12-20T01:36:10;6.40;99.90
38726;DHT22;24474;48.906;8.808;2023-12-20T01:38:36;6.40;99.90
38726;DHT22;24474;48.906;8.808;2023-12-20T01:41:02;6.30;99.90
38726;DHT22;24474;48.906;8.808;2023-12-20T01:43:29;6.40;99.90
38726;DHT22;24474;48.906;8.808;2023-12-20T01:45:56;6.30;99.90
38726;DHT22;24474;48.906;8.808;2023-12-20T01:48:22;6.30;99.90
38726;DHT22;24474;48.906;8.808;2023-12-20T01:50:49;6.30;99.90
38726;DHT22;24474;48.906;8.808;2023-12-20T01:53:15;6.30;99.90
38726;DHT22;24474;48.906;8.808;2023-12-20T01:55:41;6.30;99.90
38726;DHT22;24474;48.906;8.808;2023-12-20T01:58:09;6.30;99.90
38726;DHT22;24474;48.906;8.808;2023-12-20T02:00:36;6.30;99.90
38726;DHT22;24474;48.906;8.808;2023-12-20T02:03:03;6.20;99.90
38726;DHT22;24474;48.906;8.808;2023-12-20T02:05:30;6.30;99.90
38726;DHT22;24474;48.906;8.808;2023-12-20T02:07:57;6.20;99.90
38726;DHT22;24474;48.906;8.808;2023-12-20T02:10:23;6.20;99.90
38726;DHT22;24474;48.906;8.808;2023-12-20T02:12:49;6.20;99.90
38726;DHT22;24474;48.906;8.808;2023-12-20T02:15:15;6.20;99.90
38726;DHT22;24474;48.906;8.808;2023-12-20T02:17:41;6.20;99.90
38726;DHT22;24474;48.906;8.808;2023-12-20T02:20:07;6.20;99.90
38726;DHT22;24474;48.906;8.808;2023-12-20T02:22:32;6.10;99.90
38726;DHT22;24474;48.906;8.808;2023-12-20T02:24:58;6.10;99.90
38726;DHT22;24474;48.906;8.808;2023-12-20T02:27:24;6.10;99.90
38726;DHT22;24474;48.906;8.808;2023-12-20T02:29:50;6.10;99.90
38726;DHT22;24474;48.906;8.808;2023-12-20T02:32:17;6.10;99.90
38726;DHT22;24474;48.906;8.808;2023-12-20T02:34:43;6.10;99.90
38726;DHT22;24474;48.906;8.808;2023-12-20T02:37:08;6.00;99.90
38726;DHT22;24474;48.906;8.808;2023-12-20T02:39:34;6.00;99.90
38726;DHT22;24474;48.906;8.808;2023-12-20T02:42:00;6.00;99.90
38726;DHT22;24474;48.906;8.808;2023-12-20T02:44:25;6.00;99.90
38726;DHT22;24474;48.906;8.808;2023-12-20T02:46:51;6.00;99.90
38726;DHT22;24474;48.906;8.808;2023-12-20T02:49:17;5.90;99.90
38726;DHT22;24474;48.906;8.808;2023-12-20T02:51:42;5.90;99.90
38726;DHT22;24474;48.906;8.808;2023-12-20T02:54:08;5.90;99.90
38726;DHT22;24474;48.906;8.808;2023-12-20T02:56:34;5.90;99.90
38726;DHT22;24474;48.906;8.808;2023-12-20T02:58:59;5.90;99.90
38726;DHT22;24474;48.906;8.808;2023-12-20T03:01:25;5.90;99.90
38726;DHT22;24474;48.906;8.808;2023-12-20T03:03:51;5.90;99.90
38726;DHT22;24474;48.906;8.808;2023-12-20T03:06:18;5.90;99.90
38726;DHT22;24474;48.906;8.808;2023-12-20T03:08:44;5.80;99.90
38726;DHT22;24474;48.906;8.808;2023-12-20T03:11:10;5.80;99.90
38726;DHT22;24474;48.906;8.808;2023-12-20T03:13:35;5.80;99.90
38726;DHT22;24474;48.906;8.808;2023-12-20T03:16:01;5.80;99.90
38726;DHT22;24474;48.906;8.808;2023-12-20T03:18:32;5.80;99.90
38726;DHT22;24474;48.906;8.808;2023-12-20T03:20:58;5.80;99.90
38726;DHT22;24474;48.906;8.808;2023-12-20T03:23:24;5.80;99.90
38726;DHT22;24474;48.906;8.808;2023-12-20T03:25:50;5.70;99.90
38726;DHT22;24474;48.906;8.808;2023-12-20T03:28:15;5.80;99.90
38726;DHT22;24474;48.906;8.808;2023-12-20T03:30:41;5.70;99.90
38726;DHT22;24474;48.906;8.808;2023-12-20T03:33:10;5.70;99.90
38726;DHT22;24474;48.906;8.808;2023-12-20T03:35:35;5.70;99.90
38726;DHT22;24474;48.906;8.808;2023-12-20T03:38:01;5.70;99.90
38726;DHT22;24474;48.906;8.808;2023-12-20T03:40:27;5.70;99.90
38726;DHT22;24474;48.906;8.808;2023-12-20T03:42:52;5.70;99.90
38726;DHT22;24474;48.906;8.808;2023-12-20T03:45:18;5.60;99.90
38726;DHT22;24474;48.906;8.808;2023-12-20T03:47:43;5.60;99.90
38726;DHT22;24474;48.906;8.808;2023-12-20T03:50:09;5.60;99.90
38726;DHT22;24474;48.906;8.808;2023-12-20T03:52:34;5.60;99.90
38726;DHT22;24474;48.906;8.808;2023-12-20T03:55:00;5.60;99.90
38726;DHT22;24474;48.906;8.808;2023-12-20T03:57:26;5.60;99.90
38726;DHT22;24474;48.906;8.808;2023-12-20T03:59:51;5.60;99.90
38726;DHT22;24474;48.906;8.808;2023-12-20T04:02:17;5.50;99.90
38726;DHT22;24474;48.906;8.808;2023-12-20T04:04:43;5.60;99.90
38726;DHT22;24474;48.906;8.808;2023-12-20T04:07:09;5.60;99.90
38726;DHT22;24474;48.906;8.808;2023-12-20T04:09:34;5.50;99.90
38726;DHT22;24474;48.906;8.808;2023-12-20T04:12:00;5.50;99.90
38726;DHT22;24474;48.906;8.808;2023-12-20T04:14:25;5.50;99.90
38726;DHT22;24474;48.906;8.808;2023-12-20T04:16:52;5.50;99.90
38726;DHT22;24474;48.906;8.808;2023-12-20T04:19:17;5.50;99.90
38726;DHT22;24474;48.906;8.808;2023-12-20T04:21:43;5.50;99.90
38726;DHT22;24474;48.906;8.808;2023-12-20T04:24:08;5.50;99.90
38726;DHT22;24474;48.906;8.808;2023-12-20T04:26:34;5.50;99.90
38726;DHT22;24474;48.906;8.808;2023-12-20T04:29:00;5.50;99.90
38726;DHT22;24474;48.906;8.808;2023-12-20T04:31:25;5.50;99.90
38726;DHT22;24474;48.906;8.808;2023-12-20T04:33:51;5.50;99.90
38726;DHT22;24474;48.906;8.808;2023-12-20T04:36:16;5.50;99.90
38726;DHT22;24474;48.906;8.808;2023-12-20T04:38:42;5.50;99.90
38726;DHT22;24474;48.906;8.808;2023-12-20T04:41:08;5.50;99.90
38726;DHT22;24474;48.906;8.808;2023-12-20T04:43:33;5.50;99.90
38726;DHT22;24474;48.906;8.808;2023-12-20T04:45:59;5.50;99.90
38726;DHT22;24474;48.906;8.808;2023-12-20T04:48:24;5.50;99.90
38726;DHT22;24474;48.906;8.808;2023-12-20T04:50:50;5.50;99.90
38726;DHT22;24474;48.906;8.808;2023-12-20T04:53:16;5.50;99.90
38726;DHT22;24474;48.906;8.808;2023-12-20T04:55:41;5.50;99.90
38726;DHT22;24474;48.906;8.808;2023-12-20T04:58:07;5.60;99.90
38726;DHT22;24474;48.906;8.808;2023-12-20T05:00:33;5.50;99.90
38726;DHT22;24474;48.906;8.808;2023-12-20T05:02:58;5.50;99.90
38726;DHT22;24474;48.906;8.808;2023-12-20T05:05:24;5.50;99.90
38726;DHT22;24474;48.906;8.808;2023-12-20T05:07:49;5.50;99.90
38726;DHT22;24474;48.906;8.808;2023-12-20T05:10:16;5.50;99.90
38726;DHT22;24474;48.906;8.808;2023-12-20T05:12:41;5.50;99.90
38726;DHT22;24474;48.906;8.808;2023-12-20T05:15:08;5.50;99.90
38726;DHT22;24474;48.906;8.808;2023-12-20T05:17:33;5.50;99.90
38726;DHT22;24474;48.906;8.808;2023-12-20T05:20:00;5.50;99.90
38726;DHT22;24474;48.906;8.808;2023-12-20T05:22:25;5.50;99.90
38726;DHT22;24474;48.906;8.808;2023-12-20T05:24:53;5.50;99.90
38726;DHT22;24474;48.906;8.808;2023-12-20T05:27:18;5.50;99.90
38726;DHT22;24474;48.906;8.808;2023-12-20T05:29:44;5.50;99.90
38726;DHT22;24474;48.906;8.808;2023-12-20T05:32:10;5.50;99.90
38726;DHT22;24474;48.906;8.808;2023-12-20T05:34:35;5.50;99.90
38726;DHT22;24474;48.906;8.808;2023-12-20T05:37:02;5.50;99.90
38726;DHT22;24474;48.906;8.808;2023-12-20T05:39:27;5.50;99.90
38726;DHT22;24474;48.906;8.808;2023-12-20T05:41:53;5.50;99.90
38726;DHT22;24474;48.906;8.808;2023-12-20T05:44:19;5.50;99.90
38726;DHT22;24474;48.906;8.808;2023-12-20T05:46:44;5.50;99.90
38726;DHT22;24474;48.906;8.808;2023-12-20T05:49:10;5.50;99.90
38726;DHT22;24474;48.906;8.808;2023-12-20T05:51:36;5.60;99.90
38726;DHT22;24474;48.906;8.808;2023-12-20T05:54:01;5.50;99.90
38726;DHT22;24474;48.906;8.808;2023-12-20T05:56:27;5.50;99.90
38726;DHT22;24474;48.906;8.808;2023-12-20T05:58:53;5.50;99.90
38726;DHT22;24474;48.906;8.808;2023-12-20T06:01:18;5.50;99.90
38726;DHT22;24474;48.906;8.808;2023-12-20T06:03:44;5.50;99.90
38726;DHT22;24474;48.906;8.808;2023-12-20T06:06:11;5.60;99.90
38726;DHT22;24474;48.906;8.808;2023-12-20T06:08:38;5.50;99.90
38726;DHT22;24474;48.906;8.808;2023-12-20T06:11:04;5.60;99.90
38726;DHT22;24474;48.906;8.808;2023-12-20T06:13:31;5.60;99.90
38726;DHT22;24474;48.906;8.808;2023-12-20T06:15:56;5.60;99.90
38726;DHT22;24474;48.906;8.808;2023-12-20T06:18:22;5.60;99.90
38726;DHT22;24474;48.906;8.808;2023-12-20T06:20:48;5.60;99.90
38726;DHT22;24474;48.906;8.808;2023-12-20T06:23:13;5.60;99.90
38726;DHT22;24474;48.906;8.808;2023-12-20T06:25:39;5.60;99.90
38726;DHT22;24474;48.906;8.808;2023-12-20T06:28:05;5.60;99.90
38726;DHT22;24474;48.906;8.808;2023-12-20T06:30:30;5.50;99.90
38726;DHT22;24474;48.906;8.808;2023-12-20T06:32:58;5.60;99.90
38726;DHT22;24474;48.906;8.808;2023-12-20T06:35:24;5.60;99.90
38726;DHT22;24474;48.906;8.808;2023-12-20T06:37:50;5.60;99.90
38726;DHT22;24474;48.906;8.808;2023-12-20T06:40:17;5.60;99.90
38726;DHT22;24474;48.906;8.808;2023-12-20T06:42:42;5.60;99.90
38726;DHT22;24474;48.906;8.808;2023-12-20T06:45:09;5.60;99.90
38726;DHT22;24474;48.906;8.808;2023-12-20T06:47:35;5.60;99.90
38726;DHT22;24474;48.906;8.808;2023-12-20T06:50:01;5.60;99.90
38726;DHT22;24474;48.906;8.808;2023-12-20T06:52:26;5.60;99.90
38726;DHT22;24474;48.906;8.808;2023-12-20T06:54:52;5.60;99.90
38726;DHT22;24474;48.906;8.808;2023-12-20T06:57:18;5.60;99.90
38726;DHT22;24474;48.906;8.808;2023-12-20T06:59:47;5.60;99.90
38726;DHT22;24474;48.906;8.808;2023-12-20T07:02:13;5.60;99.90
38726;DHT22;24474;48.906;8.808;2023-12-20T07:04:41;5.50;99.90
38726;DHT22;24474;48.906;8.808;2023-12-20T07:07:09;5.50;99.90
38726;DHT22;24474;48.906;8.808;2023-12-20T07:09:34;5.50;99.90
38726;DHT22;24474;48.906;8.808;2023-12-20T07:12:00;5.50;99.90
38726;DHT22;24474;48.906;8.808;2023-12-20T07:14:26;5.50;99.90
38726;DHT22;24474;48.906;8.808;2023-12-20T07:16:52;5.50;99.90
38726;DHT22;24474;48.906;8.808;2023-12-20T07:19:17;5.50;99.90
38726;DHT22;24474;48.906;8.808;2023-12-20T07:21:43;5.50;99.90
38726;DHT22;24474;48.906;8.808;2023-12-20T07:24:08;5.50;99.90
38726;DHT22;24474;48.906;8.808;2023-12-20T07:26:35;5.50;99.90
38726;DHT22;24474;48.906;8.808;2023-12-20T07:29:01;5.50;99.90
38726;DHT22;24474;48.906;8.808;2023-12-20T07:31:26;5.50;99.90
38726;DHT22;24474;48.906;8.808;2023-12-20T07:33:52;5.50;99.90
38726;DHT22;24474;48.906;8.808;2023-12-20T07:36:20;5.50;99.90
38726;DHT22;24474;48.906;8.808;2023-12-20T07:38:46;5.40;99.90
38726;DHT22;24474;48.906;8.808;2023-12-20T07:41:12;5.40;99.90
38726;DHT22;24474;48.906;8.808;2023-12-20T07:43:38;5.40;99.90
38726;DHT22;24474;48.906;8.808;2023-12-20T07:46:08;5.40;99.90
38726;DHT22;24474;48.906;8.808;2023-12-20T07:48:37;5.40;99.90
38726;DHT22;24474;48.906;8.808;2023-12-20T07:51:04;5.40;99.90
38726;DHT22;24474;48.906;8.808;2023-12-20T07:53:32;5.40;99.90
38726;DHT22;24474;48.906;8.808;2023-12-20T07:55:58;5.40;99.90
38726;DHT22;24474;48.906;8.808;2023-12-20T07:58:24;5.40;99.90
38726;DHT22;24474;48.906;8.808;2023-12-20T08:00:49;5.30;99.90
38726;DHT22;24474;48.906;8.808;2023-12-20T08:03:15;5.30;99.90
38726;DHT22;24474;48.906;8.808;2023-12-20T08:05:41;5.30;99.90
38726;DHT22;24474;48.906;8.808;2023-12-20T08:08:07;5.30;99.90
38726;DHT22;24474;48.906;8.808;2023-12-20T08:10:32;5.30;99.90
38726;DHT22;24474;48.906;8.808;2023-12-20T08:12:58;5.30;99.90
38726;DHT22;24474;48.906;8.808;2023-12-20T08:15:23;5.30;99.90
38726;DHT22;24474;48.906;8.808;2023-12-20T08:17:50;5.30;99.90
38726;DHT22;24474;48.906;8.808;2023-12-20T08:20:16;5.30;99.90
38726;DHT22;24474;48.906;8.808;2023-12-20T08:22:42;5.30;99.90
38726;DHT22;24474;48.906;8.808;2023-12-20T08:25:08;5.30;99.90
38726;DHT22;24474;48.906;8.808;2023-12-20T08:27:40;5.30;99.90
38726;DHT22;24474;48.906;8.808;2023-12-20T08:30:08;5.30;99.90
38726;DHT22;24474;48.906;8.808;2023-12-20T08:32:34;5.30;99.90
38726;DHT22;24474;48.906;8.808;2023-12-20T08:35:00;5.40;99.90
38726;DHT22;24474;48.906;8.808;2023-12-20T08:37:25;5.30;99.90
38726;DHT22;24474;48.906;8.808;2023-12-20T08:39:51;5.30;99.90
38726;DHT22;24474;48.906;8.808;2023-12-20T08:42:19;5.30;99.90
38726;DHT22;24474;48.906;8.808;2023-12-20T08:44:47;5.40;99.90
38726;DHT22;24474;48.906;8.808;2023-12-20T08:47:15;5.30;99.90
38726;DHT22;24474;48.906;8.808;2023-12-20T08:49:41;5.30;99.90
38726;DHT22;24474;48.906;8.808;2023-12-20T08:52:06;5.50;99.90
38726;DHT22;24474;48.906;8.808;2023-12-20T08:54:32;5.30;99.90
38726;DHT22;24474;48.906;8.808;2023-12-20T08:56:58;5.30;99.90
38726;DHT22;24474;48.906;8.808;2023-12-20T08:59:27;5.30;99.90
38726;DHT22;24474;48.906;8.808;2023-12-20T09:01:53;5.20;99.90
38726;DHT22;24474;48.906;8.808;2023-12-20T09:04:20;5.20;99.90
38726;DHT22;24474;48.906;8.808;2023-12-20T09:06:46;5.20;99.90
38726;DHT22;24474;48.906;8.808;2023-12-20T09:09:11;5.30;99.90
38726;DHT22;24474;48.906;8.808;2023-12-20T09:11:39;5.20;99.90
38726;DHT22;24474;48.906;8.808;2023-12-20T09:14:04;5.20;99.90
38726;DHT22;24474;48.906;8.808;2023-12-20T09:16:30;5.20;99.90
38726;DHT22;24474;48.906;8.808;2023-12-20T09:18:57;5.30;99.90
38726;DHT22;24474;48.906;8.808;2023-12-20T09:21:23;5.30;99.90
38726;DHT22;24474;48.906;8.808;2023-12-20T09:23:48;5.30;99.90
38726;DHT22;24474;48.906;8.808;2023-12-20T09:26:15;5.30;99.90
38726;DHT22;24474;48.906;8.808;2023-12-20T09:28:42;5.30;99.90
38726;DHT22;24474;48.906;8.808;2023-12-20T09:31:08;5.30;99.90
38726;DHT22;24474;48.906;8.808;2023-12-20T09:33:34;5.30;99.90
38726;DHT22;24474;48.906;8.808;2023-12-20T09:36:02;5.30;99.90
38726;DHT22;24474;48.906;8.808;2023-12-20T09:38:28;5.30;99.90
38726;DHT22;24474;48.906;8.808;2023-12-20T09:40:55;5.40;99.90
38726;DHT22;24474;48.906;8.808;2023-12-20T09:43:27;5.40;99.90
38726;DHT22;24474;48.906;8.808;2023-12-20T09:45:58;5.40;99.90
38726;DHT22;24474;48.906;8.808;2023-12-20T09:48:26;5.40;99.90
38726;DHT22;24474;48.906;8.808;2023-12-20T09:50:53;5.50;99.90
38726;DHT22;24474;48.906;8.808;2023-12-20T09:53:19;5.50;99.90
38726;DHT22;24474;48.906;8.808;2023-12-20T09:55:46;5.50;99.90
38726;DHT22;24474;48.906;8.808;2023-12-20T09:58:12;5.50;99.90
38726;DHT22;24474;48.906;8.808;2023-12-20T10:00:37;5.50;99.90
38726;DHT22;24474;48.906;8.808;2023-12-20T10:03:03;5.60;99.90
38726;DHT22;24474;48.906;8.808;2023-12-20T10:05:32;5.50;99.90
38726;DHT22;24474;48.906;8.808;2023-12-20T10:07:59;5.50;99.90
38726;DHT22;24474;48.906;8.808;2023-12-20T10:10:25;5.50;99.90
38726;DHT22;24474;48.906;8.808;2023-12-20T10:13:21;5.50;99.90
38726;DHT22;24474;48.906;8.808;2023-12-20T10:15:46;5.50;99.90
38726;DHT22;24474;48.906;8.808;2023-12-20T10:18:12;5.50;99.90
38726;DHT22;24474;48.906;8.808;2023-12-20T10:20:40;5.50;99.90
38726;DHT22;24474;48.906;8.808;2023-12-20T10:23:06;5.50;99.90
38726;DHT22;24474;48.906;8.808;2023-12-20T10:25:32;5.50;99.90
38726;DHT22;24474;48.906;8.808;2023-12-20T10:28:12;5.50;99.90
38726;DHT22;24474;48.906;8.808;2023-12-20T10:30:39;5.50;99.90
38726;DHT22;24474;48.906;8.808;2023-12-20T10:33:08;5.60;99.90
38726;DHT22;24474;48.906;8.808;2023-12-20T10:35:35;5.60;99.90
38726;DHT22;24474;48.906;8.808;2023-12-20T10:38:04;5.60;99.90
38726;DHT22;24474;48.906;8.808;2023-12-20T10:40:30;5.70;99.90
38726;DHT22;24474;48.906;8.808;2023-12-20T10:42:56;5.80;99.90
38726;DHT22;24474;48.906;8.808;2023-12-20T10:45:23;5.80;99.90
38726;DHT22;24474;48.906;8.808;2023-12-20T10:47:50;5.80;99.90
38726;DHT22;24474;48.906;8.808;2023-12-20T10:50:16;5.90;99.90
38726;DHT22;24474;48.906;8.808;2023-12-20T10:52:42;5.90;99.90
38726;DHT22;24474;48.906;8.808;2023-12-20T10:55:12;5.90;99.90
38726;DHT22;24474;48.906;8.808;2023-12-20T10:57:38;5.90;99.90
38726;DHT22;24474;48.906;8.808;2023-12-20T11:00:06;6.00;99.90
38726;DHT22;24474;48.906;8.808;2023-12-20T11:02:39;6.00;99.90
38726;DHT22;24474;48.906;8.808;2023-12-20T11:08:36;6.00;99.90
38726;DHT22;24474;48.906;8.808;2023-12-20T11:11:09;5.90;99.90
38726;DHT22;24474;48.906;8.808;2023-12-20T11:13:47;5.90;99.90
38726;DHT22;24474;48.906;8.808;2023-12-20T11:16:13;5.90;99.90
38726;DHT22;24474;48.906;8.808;2023-12-20T11:18:45;5.90;99.90
38726;DHT22;24474;48.906;8.808;2023-12-20T11:21:10;5.90;99.90
38726;DHT22;24474;48.906;8.808;2023-12-20T11:23:36;5.90;99.90
38726;DHT22;24474;48.906;8.808;2023-12-20T11:26:02;5.90;99.90
38726;DHT22;24474;48.906;8.808;2023-12-20T11:28:28;5.90;99.90
38726;DHT22;24474;48.906;8.808;2023-12-20T11:30:58;5.90;99.90
38726;DHT22;24474;48.906;8.808;2023-12-20T11:33:36;5.90;99.90
38726;DHT22;24474;48.906;8.808;2023-12-20T11:36:02;5.90;99.90
38726;DHT22;24474;48.906;8.808;2023-12-20T11:38:38;5.90;99.90
38726;DHT22;24474;48.906;8.808;2023-12-20T11:41:07;6.00;99.90
38726;DHT22;24474;48.906;8.808;2023-12-20T11:43:36;6.00;99.90
38726;DHT22;24474;48.906;8.808;2023-12-20T11:46:08;6.00;99.90
38726;DHT22;24474;48.906;8.808;2023-12-20T11:48:37;5.90;99.90
38726;DHT22;24474;48.906;8.808;2023-12-20T11:51:08;6.00;99.90
38726;DHT22;24474;48.906;8.808;2023-12-20T11:53:34;6.00;99.90
38726;DHT22;24474;48.906;8.808;2023-12-20T11:56:00;6.00;99.90
38726;DHT22;24474;48.906;8.808;2023-12-20T11:58:28;6.00;99.90
38726;DHT22;24474;48.906;8.808;2023-12-20T12:00:55;6.00;99.90
38726;DHT22;24474;48.906;8.808;2023-12-20T12:03:20;6.00;99.90
38726;DHT22;24474;48.906;8.808;2023-12-20T12:05:47;6.10;99.90
38726;DHT22;24474;48.906;8.808;2023-12-20T12:08:13;6.10;99.90
38726;DHT22;24474;48.906;8.808;2023-12-20T12:10:39;6.10;99.90
38726;DHT22;24474;48.906;8.808;2023-12-20T12:13:05;6.10;99.90
38726;DHT22;24474;48.906;8.808;2023-12-20T12:15:30;6.10;99.90
38726;DHT22;24474;48.906;8.808;2023-12-20T12:17:57;6.10;99.90
38726;DHT22;24474;48.906;8.808;2023-12-20T12:20:23;6.10;99.90
38726;DHT22;24474;48.906;8.808;2023-12-20T12:23:03;6.10;99.90
38726;DHT22;24474;48.906;8.808;2023-12-20T12:25:30;6.10;99.90
38726;DHT22;24474;48.906;8.808;2023-12-20T12:28:02;6.20;99.90
38726;DHT22;24474;48.906;8.808;2023-12-20T12:30:28;6.20;99.90
38726;DHT22;24474;48.906;8.808;2023-12-20T12:32:56;6.20;99.90
38726;DHT22;24474;48.906;8.808;2023-12-20T12:35:22;6.10;99.90
38726;DHT22;24474;48.906;8.808;2023-12-20T12:37:47;6.10;99.90
38726;DHT22;24474;48.906;8.808;2023-12-20T12:40:15;6.00;99.90
38726;DHT22;24474;48.906;8.808;2023-12-20T12:42:44;6.00;99.90
38726;DHT22;24474;48.906;8.808;2023-12-20T12:45:11;6.00;99.90
38726;DHT22;24474;48.906;8.808;2023-12-20T12:47:39;6.00;99.90
38726;DHT22;24474;48.906;8.808;2023-12-20T12:50:05;6.10;99.90
38726;DHT22;24474;48.906;8.808;2023-12-20T12:52:31;6.00;99.90
38726;DHT22;24474;48.906;8.808;2023-12-20T12:54:57;6.00;99.90
38726;DHT22;24474;48.906;8.808;2023-12-20T12:57:23;6.00;99.90
38726;DHT22;24474;48.906;8.808;2023-12-20T12:59:49;6.10;99.90
38726;DHT22;24474;48.906;8.808;2023-12-20T13:02:15;6.10;99.90
38726;DHT22;24474;48.906;8.808;2023-12-20T13:04:41;6.10;99.90
38726;DHT22;24474;48.906;8.808;2023-12-20T13:07:08;6.00;99.90
38726;DHT22;24474;48.906;8.808;2023-12-20T13:09:36;6.10;99.90
38726;DHT22;24474;48.906;8.808;2023-12-20T13:12:03;6.00;99.90
38726;DHT22;24474;48.906;8.808;2023-12-20T13:14:31;6.10;99.90
38726;DHT22;24474;48.906;8.808;2023-12-20T13:16:58;6.10;99.90
38726;DHT22;24474;48.906;8.808;2023-12-20T13:19:24;6.10;99.90
38726;DHT22;24474;48.906;8.808;2023-12-20T13:21:49;6.10;99.90
38726;DHT22;24474;48.906;8.808;2023-12-20T13:24:15;6.10;99.90
38726;DHT22;24474;48.906;8.808;2023-12-20T13:26:41;6.10;99.90
38726;DHT22;24474;48.906;8.808;2023-12-20T13:29:09;6.10;99.90
38726;DHT22;24474;48.906;8.808;2023-12-20T13:31:34;6.00;99.90
38726;DHT22;24474;48.906;8.808;2023-12-20T13:34:01;6.00;99.90
38726;DHT22;24474;48.906;8.808;2023-12-20T13:36:27;6.00;99.90
38726;DHT22;24474;48.906;8.808;2023-12-20T13:38:53;5.90;99.90
38726;DHT22;24474;48.906;8.808;2023-12-20T13:41:19;5.90;99.90
38726;DHT22;24474;48.906;8.808;2023-12-20T13:43:45;5.90;99.90
38726;DHT22;24474;48.906;8.808;2023-12-20T13:46:11;5.90;99.90
38726;DHT22;24474;48.906;8.808;2023-12-20T13:48:36;5.90;99.90
38726;DHT22;24474;48.906;8.808;2023-12-20T13:51:02;5.90;99.90
38726;DHT22;24474;48.906;8.808;2023-12-20T13:53:28;5.80;99.90
38726;DHT22;24474;48.906;8.808;2023-12-20T13:55:54;5.80;99.90
38726;DHT22;24474;48.906;8.808;2023-12-20T13:58:20;5.80;99.90
38726;DHT22;24474;48.906;8.808;2023-12-20T14:00:48;5.70;99.90
38726;DHT22;24474;48.906;8.808;2023-12-20T14:03:14;5.70;99.90
38726;DHT22;24474;48.906;8.808;2023-12-20T14:05:39;5.70;99.90
38726;DHT22;24474;48.906;8.808;2023-12-20T14:08:06;5.70;99.90
38726;DHT22;24474;48.906;8.808;2023-12-20T14:10:31;5.70;99.90
38726;DHT22;24474;48.906;8.808;2023-12-20T14:12:57;5.70;99.90
38726;DHT22;24474;48.906;8.808;2023-12-20T14:15:22;5.70;99.90
38726;DHT22;24474;48.906;8.808;2023-12-20T14:17:50;5.70;99.90
38726;DHT22;24474;48.906;8.808;2023-12-20T14:20:16;5.70;99.90
38726;DHT22;24474;48.906;8.808;2023-12-20T14:22:43;5.70;99.90
38726;DHT22;24474;48.906;8.808;2023-12-20T14:25:10;5.70;99.90
38726;DHT22;24474;48.906;8.808;2023-12-20T14:27:37;5.60;99.90
38726;DHT22;24474;48.906;8.808;2023-12-20T14:30:03;5.60;99.90
38726;DHT22;24474;48.906;8.808;2023-12-20T14:32:29;5.60;99.90
38726;DHT22;24474;48.906;8.808;2023-12-20T14:34:55;5.60;99.90
38726;DHT22;24474;48.906;8.808;2023-12-20T14:37:20;5.60;99.90
38726;DHT22;24474;48.906;8.808;2023-12-20T14:39:46;5.60;99.90
38726;DHT22;24474;48.906;8.808;2023-12-20T14:42:12;5.60;99.90
38726;DHT22;24474;48.906;8.808;2023-12-20T14:44:42;5.60;99.90
38726;DHT22;24474;48.906;8.808;2023-12-20T14:47:08;5.60;99.90
38726;DHT22;24474;48.906;8.808;2023-12-20T14:49:34;5.60;99.90
38726;DHT22;24474;48.906;8.808;2023-12-20T14:52:01;5.50;99.90
38726;DHT22;24474;48.906;8.808;2023-12-20T14:54:26;5.50;99.90
38726;DHT22;24474;48.906;8.808;2023-12-20T14:56:52;5.50;99.90
38726;DHT22;24474;48.906;8.808;2023-12-20T14:59:17;5.50;99.90
38726;DHT22;24474;48.906;8.808;2023-12-20T15:01:43;5.50;99.90
38726;DHT22;24474;48.906;8.808;2023-12-20T15:04:09;5.50;99.90
38726;DHT22;24474;48.906;8.808;2023-12-20T15:06:35;5.50;99.90
38726;DHT22;24474;48.906;8.808;2023-12-20T15:09:01;5.40;99.90
38726;DHT22;24474;48.906;8.808;2023-12-20T15:11:30;5.40;99.90
38726;DHT22;24474;48.906;8.808;2023-12-20T15:13:56;5.40;99.90
38726;DHT22;24474;48.906;8.808;2023-12-20T15:16:22;5.40;99.90
38726;DHT22;24474;48.906;8.808;2023-12-20T15:18:48;5.30;99.90
38726;DHT22;24474;48.906;8.808;2023-12-20T15:21:15;5.30;99.90
38726;DHT22;24474;48.906;8.808;2023-12-20T15:23:40;5.30;99.90
38726;DHT22;24474;48.906;8.808;2023-12-20T15:26:18;5.20;99.90
38726;DHT22;24474;48.906;8.808;2023-12-20T15:28:43;5.20;99.90
38726;DHT22;24474;48.906;8.808;2023-12-20T15:31:09;5.20;99.90
38726;DHT22;24474;48.906;8.808;2023-12-20T15:33:35;5.20;99.90
38726;DHT22;24474;48.906;8.808;2023-12-20T15:36:00;5.10;99.90
38726;DHT22;24474;48.906;8.808;2023-12-20T15:38:26;5.10;99.90
38726;DHT22;24474;48.906;8.808;2023-12-20T15:40:51;5.10;99.90
38726;DHT22;24474;48.906;8.808;2023-12-20T15:43:17;5.10;99.90